sensor_id;sensor_type;location;lat;lon;timestamp;P1;durP1;ratioP1;P2;durP2;ratioP2
5585;SDS011;2815;54.094;12.112;2022-07-29T00:02:24;10.00;;;4.10;;
5585;SDS011;2815;54.094;12.112;2022-07-29T00:04:53;13.52;;;5.30;;
5585;SDS011;2815;54.094;12.112;2022-07-29T00:07:21;10.52;;;4.13;;
5585;SDS011;2815;54.094;12.112;2022-07-29T00:09:49;11.48;;;4.03;;
5585;SDS011;2815;54.094;12.112;2022-07-29T00:12:19;12.38;;;4.32;;
5585;SDS011;2815;54.094;12.112;2022-07-29T00:14:52;10.90;;;3.67;;
5585;SDS011;2815;54.094;12.112;2022-07-29T00:17:20;9.05;;;4.13;;
5585;SDS011;2815;54.094;12.112;2022-07-29T00:19:48;8.40;;;3.65;;
5585;SDS011;2815;54.094;12.112;2022-07-29T00:22:16;8.23;;;4.25;;
5585;SDS011;2815;54.094;12.112;2022-07-29T00:24:44;9.32;;;3.70;;
5585;SDS011;2815;54.094;12.112;2022-07-29T00:27:14;9.75;;;3.92;;
5585;SDS011;2815;54.094;12.112;2022-07-29T00:29:44;5.95;;;3.58;;
5585;SDS011;2815;54.094;12.112;2022-07-29T00:32:12;8.57;;;3.53;;
5585;SDS011;2815;54.094;12.112;2022-07-29T00:34:40;8.38;;;4.28;;
5585;SDS011;2815;54.094;12.112;2022-07-29T00:37:25;12.32;;;3.80;;
5585;SDS011;2815;54.094;12.112;2022-07-29T00:39:54;13.00;;;4.25;;
5585;SDS011;2815;54.094;12.112;2022-07-29T00:42:22;9.77;;;4.10;;
5585;SDS011;2815;54.094;12.112;2022-07-29T00:44:51;10.20;;;3.97;;
5585;SDS011;2815;54.094;12.112;2022-07-29T00:47:19;9.07;;;4.15;;
5585;SDS011;2815;54.094;12.112;2022-07-29T00:49:47;9.38;;;4.15;;
5585;SDS011;2815;54.094;12.112;2022-07-29T00:52:15;9.57;;;4.18;;
5585;SDS011;2815;54.094;12.112;2022-07-29T00:54:43;10.35;;;3.90;;
5585;SDS011;2815;54.094;12.112;2022-07-29T00:57:11;9.43;;;3.50;;
5585;SDS011;2815;54.094;12.112;2022-07-29T00:59:40;9.02;;;3.45;;
5585;SDS011;2815;54.094;12.112;2022-07-29T01:02:10;6.85;;;3.50;;
5585;SDS011;2815;54.094;12.112;2022-07-29T01:04:38;15.52;;;3.55;;
5585;SDS011;2815;54.094;12.112;2022-07-29T01:07:07;10.25;;;3.28;;
5585;SDS011;2815;54.094;12.112;2022-07-29T01:09:35;5.97;;;3.40;;
5585;SDS011;2815;54.094;12.112;2022-07-29T01:12:18;8.00;;;3.63;;
5585;SDS011;2815;54.094;12.112;2022-07-29T01:14:50;7.38;;;2.95;;
5585;SDS011;2815;54.094;12.112;2022-07-29T01:17:23;7.90;;;3.60;;
5585;SDS011;2815;54.094;12.112;2022-07-29T01:19:56;8.35;;;3.42;;
5585;SDS011;2815;54.094;12.112;2022-07-29T01:22:28;10.00;;;3.40;;
5585;SDS011;2815;54.094;12.112;2022-07-29T01:27:38;7.20;;;3.47;;
5585;SDS011;2815;54.094;12.112;2022-07-29T01:30:12;10.15;;;3.60;;
5585;SDS011;2815;54.094;12.112;2022-07-29T01:32:41;6.03;;;3.20;;
5585;SDS011;2815;54.094;12.112;2022-07-29T01:35:15;9.40;;;3.33;;
5585;SDS011;2815;54.094;12.112;2022-07-29T01:37:45;8.65;;;3.22;;
5585;SDS011;2815;54.094;12.112;2022-07-29T01:40:18;10.65;;;3.38;;
5585;SDS011;2815;54.094;12.112;2022-07-29T01:42:49;13.32;;;3.05;;
5585;SDS011;2815;54.094;12.112;2022-07-29T01:45:21;7.90;;;3.35;;
5585;SDS011;2815;54.094;12.112;2022-07-29T01:47:53;6.30;;;3.30;;
5585;SDS011;2815;54.094;12.112;2022-07-29T01:50:26;8.45;;;3.10;;
5585;SDS011;2815;54.094;12.112;2022-07-29T01:52:58;12.25;;;3.47;;
5585;SDS011;2815;54.094;12.112;2022-07-29T01:55:28;7.53;;;2.90;;
5585;SDS011;2815;54.094;12.112;2022-07-29T01:57:58;12.52;;;3.45;;
5585;SDS011;2815;54.094;12.112;2022-07-29T02:00:29;11.60;;;3.45;;
5585;SDS011;2815;54.094;12.112;2022-07-29T02:02:58;5.78;;;2.88;;
5585;SDS011;2815;54.094;12.112;2022-07-29T02:05:27;14.00;;;3.30;;
5585;SDS011;2815;54.094;12.112;2022-07-29T02:07:56;8.25;;;3.28;;
5585;SDS011;2815;54.094;12.112;2022-07-29T02:10:26;9.85;;;3.10;;
5585;SDS011;2815;54.094;12.112;2022-07-29T02:12:55;5.78;;;2.90;;
5585;SDS011;2815;54.094;12.112;2022-07-29T02:15:25;6.10;;;2.90;;
5585;SDS011;2815;54.094;12.112;2022-07-29T02:17:58;8.43;;;3.38;;
5585;SDS011;2815;54.094;12.112;2022-07-29T02:20:28;6.38;;;2.70;;
5585;SDS011;2815;54.094;12.112;2022-07-29T02:22:58;6.03;;;2.92;;
5585;SDS011;2815;54.094;12.112;2022-07-29T02:25:26;7.85;;;2.90;;
5585;SDS011;2815;54.094;12.112;2022-07-29T02:28:02;6.13;;;3.00;;
5585;SDS011;2815;54.094;12.112;2022-07-29T02:30:33;10.93;;;3.38;;
5585;SDS011;2815;54.094;12.112;2022-07-29T02:33:02;7.97;;;3.08;;
5585;SDS011;2815;54.094;12.112;2022-07-29T02:35:30;4.20;;;2.75;;
5585;SDS011;2815;54.094;12.112;2022-07-29T02:38:00;6.90;;;3.20;;
5585;SDS011;2815;54.094;12.112;2022-07-29T02:40:47;8.77;;;3.03;;
5585;SDS011;2815;54.094;12.112;2022-07-29T02:43:16;7.72;;;3.05;;
5585;SDS011;2815;54.094;12.112;2022-07-29T02:45:46;7.35;;;3.30;;
5585;SDS011;2815;54.094;12.112;2022-07-29T02:48:17;6.82;;;3.28;;
5585;SDS011;2815;54.094;12.112;2022-07-29T02:50:48;6.03;;;3.17;;
5585;SDS011;2815;54.094;12.112;2022-07-29T02:53:18;5.45;;;3.03;;
5585;SDS011;2815;54.094;12.112;2022-07-29T02:55:48;6.55;;;2.80;;
5585;SDS011;2815;54.094;12.112;2022-07-29T02:58:20;9.73;;;3.40;;
5585;SDS011;2815;54.094;12.112;2022-07-29T03:00:54;8.57;;;3.70;;
5585;SDS011;2815;54.094;12.112;2022-07-29T03:03:24;8.38;;;3.30;;
5585;SDS011;2815;54.094;12.112;2022-07-29T03:05:53;8.43;;;3.53;;
5585;SDS011;2815;54.094;12.112;2022-07-29T03:08:22;8.85;;;3.35;;
5585;SDS011;2815;54.094;12.112;2022-07-29T03:10:50;8.13;;;3.58;;
5585;SDS011;2815;54.094;12.112;2022-07-29T03:13:19;9.63;;;3.92;;
5585;SDS011;2815;54.094;12.112;2022-07-29T03:15:47;8.27;;;3.80;;
5585;SDS011;2815;54.094;12.112;2022-07-29T03:18:16;6.18;;;3.80;;
5585;SDS011;2815;54.094;12.112;2022-07-29T03:20:45;11.85;;;4.00;;
5585;SDS011;2815;54.094;12.112;2022-07-29T03:23:14;8.10;;;3.70;;
5585;SDS011;2815;54.094;12.112;2022-07-29T03:25:46;6.95;;;3.65;;
5585;SDS011;2815;54.094;12.112;2022-07-29T03:28:14;9.85;;;3.78;;
5585;SDS011;2815;54.094;12.112;2022-07-29T03:30:44;10.77;;;3.90;;
5585;SDS011;2815;54.094;12.112;2022-07-29T03:33:13;10.07;;;4.18;;
5585;SDS011;2815;54.094;12.112;2022-07-29T03:35:42;9.85;;;3.95;;
5585;SDS011;2815;54.094;12.112;2022-07-29T03:38:10;9.68;;;3.47;;
5585;SDS011;2815;54.094;12.112;2022-07-29T03:40:40;9.68;;;3.88;;
5585;SDS011;2815;54.094;12.112;2022-07-29T03:43:12;6.85;;;3.38;;
5585;SDS011;2815;54.094;12.112;2022-07-29T03:45:43;8.57;;;3.95;;
5585;SDS011;2815;54.094;12.112;2022-07-29T03:48:14;10.50;;;3.42;;
5585;SDS011;2815;54.094;12.112;2022-07-29T03:50:45;8.68;;;3.60;;
5585;SDS011;2815;54.094;12.112;2022-07-29T03:53:13;9.20;;;3.50;;
5585;SDS011;2815;54.094;12.112;2022-07-29T03:55:41;12.32;;;3.22;;
5585;SDS011;2815;54.094;12.112;2022-07-29T03:58:12;7.95;;;3.08;;
5585;SDS011;2815;54.094;12.112;2022-07-29T04:00:41;10.73;;;3.58;;
5585;SDS011;2815;54.094;12.112;2022-07-29T04:03:10;8.82;;;3.00;;
5585;SDS011;2815;54.094;12.112;2022-07-29T04:05:41;9.50;;;3.40;;
5585;SDS011;2815;54.094;12.112;2022-07-29T04:08:10;8.43;;;3.40;;
5585;SDS011;2815;54.094;12.112;2022-07-29T04:10:38;7.28;;;2.88;;
5585;SDS011;2815;54.094;12.112;2022-07-29T04:13:06;7.38;;;2.90;;
5585;SDS011;2815;54.094;12.112;2022-07-29T04:15:34;9.48;;;2.90;;
5585;SDS011;2815;54.094;12.112;2022-07-29T04:18:02;12.98;;;2.70;;
5585;SDS011;2815;54.094;12.112;2022-07-29T04:20:30;8.85;;;2.72;;
5585;SDS011;2815;54.094;12.112;2022-07-29T04:22:58;10.43;;;2.80;;
5585;SDS011;2815;54.094;12.112;2022-07-29T04:25:27;6.97;;;2.50;;
5585;SDS011;2815;54.094;12.112;2022-07-29T04:27:55;9.57;;;3.40;;
5585;SDS011;2815;54.094;12.112;2022-07-29T04:30:30;7.60;;;2.50;;
5585;SDS011;2815;54.094;12.112;2022-07-29T04:32:59;6.82;;;2.53;;
5585;SDS011;2815;54.094;12.112;2022-07-29T04:35:27;6.70;;;2.92;;
5585;SDS011;2815;54.094;12.112;2022-07-29T04:37:55;6.90;;;2.33;;
5585;SDS011;2815;54.094;12.112;2022-07-29T04:40:23;9.18;;;2.20;;
5585;SDS011;2815;54.094;12.112;2022-07-29T04:42:52;7.95;;;2.85;;
5585;SDS011;2815;54.094;12.112;2022-07-29T04:45:26;5.30;;;2.35;;
5585;SDS011;2815;54.094;12.112;2022-07-29T04:47:53;7.90;;;2.60;;
5585;SDS011;2815;54.094;12.112;2022-07-29T04:50:22;6.30;;;2.17;;
5585;SDS011;2815;54.094;12.112;2022-07-29T04:52:50;7.70;;;2.53;;
5585;SDS011;2815;54.094;12.112;2022-07-29T04:55:18;7.50;;;2.53;;
5585;SDS011;2815;54.094;12.112;2022-07-29T04:57:46;7.47;;;2.25;;
5585;SDS011;2815;54.094;12.112;2022-07-29T05:00:15;5.45;;;2.30;;
5585;SDS011;2815;54.094;12.112;2022-07-29T05:02:44;5.05;;;2.40;;
5585;SDS011;2815;54.094;12.112;2022-07-29T05:05:12;5.57;;;2.25;;
5585;SDS011;2815;54.094;12.112;2022-07-29T05:07:40;7.78;;;2.80;;
5585;SDS011;2815;54.094;12.112;2022-07-29T05:10:08;10.75;;;2.95;;
5585;SDS011;2815;54.094;12.112;2022-07-29T05:12:37;5.13;;;2.30;;
5585;SDS011;2815;54.094;12.112;2022-07-29T05:15:05;6.55;;;2.20;;
5585;SDS011;2815;54.094;12.112;2022-07-29T05:17:35;5.47;;;2.10;;
5585;SDS011;2815;54.094;12.112;2022-07-29T05:20:04;6.15;;;2.25;;
5585;SDS011;2815;54.094;12.112;2022-07-29T05:22:33;7.30;;;2.20;;
5585;SDS011;2815;54.094;12.112;2022-07-29T05:25:01;8.48;;;2.40;;
5585;SDS011;2815;54.094;12.112;2022-07-29T05:27:34;9.00;;;2.17;;
5585;SDS011;2815;54.094;12.112;2022-07-29T05:30:03;5.85;;;2.03;;
5585;SDS011;2815;54.094;12.112;2022-07-29T05:32:32;14.35;;;2.40;;
5585;SDS011;2815;54.094;12.112;2022-07-29T05:35:01;13.88;;;2.28;;
5585;SDS011;2815;54.094;12.112;2022-07-29T05:37:29;7.70;;;2.15;;
5585;SDS011;2815;54.094;12.112;2022-07-29T05:39:57;5.15;;;1.80;;
5585;SDS011;2815;54.094;12.112;2022-07-29T05:42:25;7.45;;;1.90;;
5585;SDS011;2815;54.094;12.112;2022-07-29T05:44:53;3.05;;;1.60;;
5585;SDS011;2815;54.094;12.112;2022-07-29T05:47:21;7.95;;;1.52;;
5585;SDS011;2815;54.094;12.112;2022-07-29T05:49:49;11.20;;;1.67;;
5585;SDS011;2815;54.094;12.112;2022-07-29T05:52:19;5.28;;;2.08;;
5585;SDS011;2815;54.094;12.112;2022-07-29T05:54:47;7.97;;;1.60;;
5585;SDS011;2815;54.094;12.112;2022-07-29T05:57:15;7.50;;;1.80;;
5585;SDS011;2815;54.094;12.112;2022-07-29T05:59:44;9.25;;;1.83;;
5585;SDS011;2815;54.094;12.112;2022-07-29T06:02:12;5.15;;;1.70;;
5585;SDS011;2815;54.094;12.112;2022-07-29T06:04:40;5.20;;;1.75;;
5585;SDS011;2815;54.094;12.112;2022-07-29T06:07:08;5.47;;;1.75;;
5585;SDS011;2815;54.094;12.112;2022-07-29T06:09:39;6.22;;;1.90;;
5585;SDS011;2815;54.094;12.112;2022-07-29T06:12:07;7.20;;;1.92;;
5585;SDS011;2815;54.094;12.112;2022-07-29T06:14:35;3.45;;;1.45;;
5585;SDS011;2815;54.094;12.112;2022-07-29T06:17:04;5.18;;;1.42;;
5585;SDS011;2815;54.094;12.112;2022-07-29T06:19:33;5.97;;;1.55;;
5585;SDS011;2815;54.094;12.112;2022-07-29T06:22:02;5.35;;;2.10;;
5585;SDS011;2815;54.094;12.112;2022-07-29T06:24:31;4.97;;;1.65;;
5585;SDS011;2815;54.094;12.112;2022-07-29T06:27:00;5.10;;;1.73;;
5585;SDS011;2815;54.094;12.112;2022-07-29T06:29:28;7.22;;;1.75;;
5585;SDS011;2815;54.094;12.112;2022-07-29T06:31:56;7.03;;;1.75;;
5585;SDS011;2815;54.094;12.112;2022-07-29T06:34:24;3.70;;;1.30;;
5585;SDS011;2815;54.094;12.112;2022-07-29T06:36:52;7.35;;;1.50;;
5585;SDS011;2815;54.094;12.112;2022-07-29T06:39:20;6.32;;;1.40;;
5585;SDS011;2815;54.094;12.112;2022-07-29T06:41:48;6.05;;;1.42;;
5585;SDS011;2815;54.094;12.112;2022-07-29T06:44:18;3.30;;;1.40;;
5585;SDS011;2815;54.094;12.112;2022-07-29T06:46:46;5.63;;;1.48;;
5585;SDS011;2815;54.094;12.112;2022-07-29T06:49:15;5.93;;;1.38;;
5585;SDS011;2815;54.094;12.112;2022-07-29T06:51:43;2.22;;;1.20;;
5585;SDS011;2815;54.094;12.112;2022-07-29T06:54:11;4.47;;;1.40;;
5585;SDS011;2815;54.094;12.112;2022-07-29T06:56:40;5.15;;;1.40;;
5585;SDS011;2815;54.094;12.112;2022-07-29T06:59:10;5.70;;;1.35;;
5585;SDS011;2815;54.094;12.112;2022-07-29T07:01:41;6.30;;;1.25;;
5585;SDS011;2815;54.094;12.112;2022-07-29T07:04:10;5.57;;;1.40;;
5585;SDS011;2815;54.094;12.112;2022-07-29T07:06:38;4.80;;;1.27;;
5585;SDS011;2815;54.094;12.112;2022-07-29T07:09:07;3.95;;;1.45;;
5585;SDS011;2815;54.094;12.112;2022-07-29T07:11:35;6.80;;;1.40;;
5585;SDS011;2815;54.094;12.112;2022-07-29T07:14:03;5.10;;;1.40;;
5585;SDS011;2815;54.094;12.112;2022-07-29T07:16:31;4.00;;;1.23;;
5585;SDS011;2815;54.094;12.112;2022-07-29T07:19:00;3.97;;;1.33;;
5585;SDS011;2815;54.094;12.112;2022-07-29T07:21:28;5.43;;;1.40;;
5585;SDS011;2815;54.094;12.112;2022-07-29T07:23:57;3.80;;;1.55;;
5585;SDS011;2815;54.094;12.112;2022-07-29T07:26:25;3.65;;;1.40;;
5585;SDS011;2815;54.094;12.112;2022-07-29T07:28:53;5.72;;;1.45;;
5585;SDS011;2815;54.094;12.112;2022-07-29T07:31:21;4.65;;;1.60;;
5585;SDS011;2815;54.094;12.112;2022-07-29T07:33:49;2.45;;;1.40;;
5585;SDS011;2815;54.094;12.112;2022-07-29T07:36:19;5.38;;;1.60;;
5585;SDS011;2815;54.094;12.112;2022-07-29T07:38:47;3.45;;;1.30;;
5585;SDS011;2815;54.094;12.112;2022-07-29T07:41:15;3.00;;;1.27;;
5585;SDS011;2815;54.094;12.112;2022-07-29T07:43:43;6.20;;;1.40;;
5585;SDS011;2815;54.094;12.112;2022-07-29T07:46:11;3.92;;;1.20;;
5585;SDS011;2815;54.094;12.112;2022-07-29T07:48:39;3.13;;;1.33;;
5585;SDS011;2815;54.094;12.112;2022-07-29T07:51:07;11.05;;;1.63;;
5585;SDS011;2815;54.094;12.112;2022-07-29T07:53:37;3.95;;;1.30;;
5585;SDS011;2815;54.094;12.112;2022-07-29T07:56:05;3.60;;;1.40;;
5585;SDS011;2815;54.094;12.112;2022-07-29T07:58:37;4.15;;;1.33;;
5585;SDS011;2815;54.094;12.112;2022-07-29T08:01:05;2.67;;;1.33;;
5585;SDS011;2815;54.094;12.112;2022-07-29T08:03:34;3.60;;;1.50;;
5585;SDS011;2815;54.094;12.112;2022-07-29T08:06:02;6.47;;;1.30;;
5585;SDS011;2815;54.094;12.112;2022-07-29T08:08:31;3.38;;;1.42;;
5585;SDS011;2815;54.094;12.112;2022-07-29T08:11:00;5.63;;;1.33;;
5585;SDS011;2815;54.094;12.112;2022-07-29T08:13:35;8.05;;;1.60;;
5585;SDS011;2815;54.094;12.112;2022-07-29T08:16:05;5.95;;;1.63;;
5585;SDS011;2815;54.094;12.112;2022-07-29T08:18:40;4.97;;;1.48;;
5585;SDS011;2815;54.094;12.112;2022-07-29T08:21:09;4.40;;;1.42;;
5585;SDS011;2815;54.094;12.112;2022-07-29T08:23:41;6.13;;;1.58;;
5585;SDS011;2815;54.094;12.112;2022-07-29T08:26:26;5.68;;;1.40;;
5585;SDS011;2815;54.094;12.112;2022-07-29T08:28:54;6.28;;;1.58;;
5585;SDS011;2815;54.094;12.112;2022-07-29T08:31:22;5.80;;;1.52;;
5585;SDS011;2815;54.094;12.112;2022-07-29T08:33:50;5.30;;;1.67;;
5585;SDS011;2815;54.094;12.112;2022-07-29T08:36:18;8.70;;;1.55;;
5585;SDS011;2815;54.094;12.112;2022-07-29T08:38:48;3.95;;;1.65;;
5585;SDS011;2815;54.094;12.112;2022-07-29T08:41:17;5.80;;;1.60;;
5585;SDS011;2815;54.094;12.112;2022-07-29T08:43:47;5.15;;;1.40;;
5585;SDS011;2815;54.094;12.112;2022-07-29T08:46:15;6.57;;;1.55;;
5585;SDS011;2815;54.094;12.112;2022-07-29T08:48:43;3.50;;;1.30;;
5585;SDS011;2815;54.094;12.112;2022-07-29T08:51:13;9.18;;;1.70;;
5585;SDS011;2815;54.094;12.112;2022-07-29T08:53:42;10.18;;;2.03;;
5585;SDS011;2815;54.094;12.112;2022-07-29T08:56:11;7.88;;;1.50;;
5585;SDS011;2815;54.094;12.112;2022-07-29T08:58:39;3.40;;;1.45;;
5585;SDS011;2815;54.094;12.112;2022-07-29T09:01:13;4.22;;;1.45;;
5585;SDS011;2815;54.094;12.112;2022-07-29T09:03:44;6.57;;;1.70;;
5585;SDS011;2815;54.094;12.112;2022-07-29T09:06:14;9.38;;;1.73;;
5585;SDS011;2815;54.094;12.112;2022-07-29T09:08:42;5.95;;;1.35;;
5585;SDS011;2815;54.094;12.112;2022-07-29T09:11:10;5.70;;;1.27;;
5585;SDS011;2815;54.094;12.112;2022-07-29T09:13:39;3.58;;;1.25;;
5585;SDS011;2815;54.094;12.112;2022-07-29T09:16:07;4.40;;;1.20;;
5585;SDS011;2815;54.094;12.112;2022-07-29T09:18:38;3.58;;;1.20;;
5585;SDS011;2815;54.094;12.112;2022-07-29T09:21:07;6.45;;;1.35;;
5585;SDS011;2815;54.094;12.112;2022-07-29T09:24:00;3.75;;;1.70;;
5585;SDS011;2815;54.094;12.112;2022-07-29T09:26:30;3.55;;;1.40;;
5585;SDS011;2815;54.094;12.112;2022-07-29T09:28:59;5.75;;;1.73;;
5585;SDS011;2815;54.094;12.112;2022-07-29T09:31:31;5.90;;;1.38;;
5585;SDS011;2815;54.094;12.112;2022-07-29T09:34:02;10.48;;;1.70;;
5585;SDS011;2815;54.094;12.112;2022-07-29T09:36:31;3.72;;;1.30;;
5585;SDS011;2815;54.094;12.112;2022-07-29T09:39:08;4.85;;;1.40;;
5585;SDS011;2815;54.094;12.112;2022-07-29T09:41:47;5.18;;;1.13;;
5585;SDS011;2815;54.094;12.112;2022-07-29T09:44:16;4.28;;;1.50;;
5585;SDS011;2815;54.094;12.112;2022-07-29T09:46:52;5.07;;;1.60;;
5585;SDS011;2815;54.094;12.112;2022-07-29T09:49:26;4.97;;;1.33;;
5585;SDS011;2815;54.094;12.112;2022-07-29T09:52:02;4.72;;;1.50;;
5585;SDS011;2815;54.094;12.112;2022-07-29T09:54:32;3.65;;;1.40;;
5585;SDS011;2815;54.094;12.112;2022-07-29T09:57:03;3.72;;;1.17;;
5585;SDS011;2815;54.094;12.112;2022-07-29T09:59:32;3.53;;;1.20;;
5585;SDS011;2815;54.094;12.112;2022-07-29T10:02:01;5.22;;;1.40;;
5585;SDS011;2815;54.094;12.112;2022-07-29T10:04:40;6.63;;;1.40;;
5585;SDS011;2815;54.094;12.112;2022-07-29T10:07:08;3.92;;;1.35;;
5585;SDS011;2815;54.094;12.112;2022-07-29T10:09:36;7.93;;;1.60;;
5585;SDS011;2815;54.094;12.112;2022-07-29T10:12:06;4.28;;;1.40;;
5585;SDS011;2815;54.094;12.112;2022-07-29T10:14:35;5.40;;;1.45;;
5585;SDS011;2815;54.094;12.112;2022-07-29T10:17:04;6.43;;;1.77;;
5585;SDS011;2815;54.094;12.112;2022-07-29T10:19:33;5.40;;;1.92;;
5585;SDS011;2815;54.094;12.112;2022-07-29T10:22:06;4.30;;;1.52;;
5585;SDS011;2815;54.094;12.112;2022-07-29T10:24:35;4.32;;;1.60;;
5585;SDS011;2815;54.094;12.112;2022-07-29T10:27:04;5.82;;;1.50;;
5585;SDS011;2815;54.094;12.112;2022-07-29T10:29:33;6.05;;;1.30;;
5585;SDS011;2815;54.094;12.112;2022-07-29T10:32:07;3.80;;;1.35;;
5585;SDS011;2815;54.094;12.112;2022-07-29T10:34:44;5.15;;;2.08;;
5585;SDS011;2815;54.094;12.112;2022-07-29T10:37:33;6.53;;;1.48;;
5585;SDS011;2815;54.094;12.112;2022-07-29T10:40:15;5.78;;;1.48;;
5585;SDS011;2815;54.094;12.112;2022-07-29T10:43:08;7.82;;;1.50;;
5585;SDS011;2815;54.094;12.112;2022-07-29T10:45:45;4.93;;;1.60;;
5585;SDS011;2815;54.094;12.112;2022-07-29T10:48:18;4.10;;;1.42;;
5585;SDS011;2815;54.094;12.112;2022-07-29T10:50:52;6.35;;;1.55;;
5585;SDS011;2815;54.094;12.112;2022-07-29T10:53:23;3.42;;;1.45;;
5585;SDS011;2815;54.094;12.112;2022-07-29T10:55:59;5.57;;;1.67;;
5585;SDS011;2815;54.094;12.112;2022-07-29T10:58:31;3.17;;;1.45;;
5585;SDS011;2815;54.094;12.112;2022-07-29T11:01:00;6.43;;;1.67;;
5585;SDS011;2815;54.094;12.112;2022-07-29T11:04:15;6.97;;;1.63;;
5585;SDS011;2815;54.094;12.112;2022-07-29T11:07:07;7.28;;;1.58;;
5585;SDS011;2815;54.094;12.112;2022-07-29T11:09:36;5.20;;;1.50;;
5585;SDS011;2815;54.094;12.112;2022-07-29T11:12:15;5.60;;;1.40;;
5585;SDS011;2815;54.094;12.112;2022-07-29T11:15:15;6.18;;;1.40;;
5585;SDS011;2815;54.094;12.112;2022-07-29T11:20:43;9.93;;;1.80;;
5585;SDS011;2815;54.094;12.112;2022-07-29T11:23:22;4.18;;;1.40;;
5585;SDS011;2815;54.094;12.112;2022-07-29T11:28:54;4.30;;;1.20;;
5585;SDS011;2815;54.094;12.112;2022-07-29T11:31:32;3.95;;;1.40;;
5585;SDS011;2815;54.094;12.112;2022-07-29T11:37:14;6.28;;;1.40;;
5585;SDS011;2815;54.094;12.112;2022-07-29T11:42:54;13.35;;;1.60;;
5585;SDS011;2815;54.094;12.112;2022-07-29T11:45:31;6.22;;;1.60;;
5585;SDS011;2815;54.094;12.112;2022-07-29T11:48:16;3.97;;;1.30;;
5585;SDS011;2815;54.094;12.112;2022-07-29T11:50:57;6.10;;;1.60;;
5585;SDS011;2815;54.094;12.112;2022-07-29T11:53:47;5.00;;;1.38;;
5585;SDS011;2815;54.094;12.112;2022-07-29T11:56:18;5.28;;;1.10;;
5585;SDS011;2815;54.094;12.112;2022-07-29T11:59:10;4.05;;;1.27;;
5585;SDS011;2815;54.094;12.112;2022-07-29T12:01:51;3.70;;;1.30;;
5585;SDS011;2815;54.094;12.112;2022-07-29T12:04:47;6.57;;;1.30;;
5585;SDS011;2815;54.094;12.112;2022-07-29T12:07:17;4.10;;;1.17;;
5585;SDS011;2815;54.094;12.112;2022-07-29T12:09:49;6.00;;;1.40;;
5585;SDS011;2815;54.094;12.112;2022-07-29T12:12:17;3.33;;;1.30;;
5585;SDS011;2815;54.094;12.112;2022-07-29T12:14:51;6.20;;;1.48;;
5585;SDS011;2815;54.094;12.112;2022-07-29T12:17:25;5.97;;;1.70;;
5585;SDS011;2815;54.094;12.112;2022-07-29T12:19:56;3.08;;;1.35;;
5585;SDS011;2815;54.094;12.112;2022-07-29T12:22:25;6.47;;;1.40;;
5585;SDS011;2815;54.094;12.112;2022-07-29T12:24:53;6.80;;;1.15;;
5585;SDS011;2815;54.094;12.112;2022-07-29T12:27:42;2.80;;;1.35;;
5585;SDS011;2815;54.094;12.112;2022-07-29T12:30:13;3.45;;;1.45;;
5585;SDS011;2815;54.094;12.112;2022-07-29T12:32:43;6.20;;;1.80;;
5585;SDS011;2815;54.094;12.112;2022-07-29T12:35:13;5.75;;;1.55;;
5585;SDS011;2815;54.094;12.112;2022-07-29T12:37:43;6.18;;;1.60;;
5585;SDS011;2815;54.094;12.112;2022-07-29T12:40:13;4.75;;;1.30;;
5585;SDS011;2815;54.094;12.112;2022-07-29T12:48:05;7.97;;;1.50;;
5585;SDS011;2815;54.094;12.112;2022-07-29T12:50:35;4.72;;;1.45;;
5585;SDS011;2815;54.094;12.112;2022-07-29T12:53:10;9.38;;;1.52;;
5585;SDS011;2815;54.094;12.112;2022-07-29T12:55:43;5.93;;;1.63;;
5585;SDS011;2815;54.094;12.112;2022-07-29T12:58:25;6.50;;;1.33;;
5585;SDS011;2815;54.094;12.112;2022-07-29T13:03:47;4.53;;;1.60;;
5585;SDS011;2815;54.094;12.112;2022-07-29T13:06:33;5.10;;;1.00;;
5585;SDS011;2815;54.094;12.112;2022-07-29T13:09:04;6.90;;;1.50;;
5585;SDS011;2815;54.094;12.112;2022-07-29T13:11:35;3.80;;;1.38;;
5585;SDS011;2815;54.094;12.112;2022-07-29T13:14:05;7.50;;;1.40;;
5585;SDS011;2815;54.094;12.112;2022-07-29T13:16:36;5.97;;;1.30;;
5585;SDS011;2815;54.094;12.112;2022-07-29T13:19:06;4.38;;;1.35;;
5585;SDS011;2815;54.094;12.112;2022-07-29T13:21:35;7.80;;;1.40;;
5585;SDS011;2815;54.094;12.112;2022-07-29T13:24:04;6.18;;;1.42;;
5585;SDS011;2815;54.094;12.112;2022-07-29T13:26:33;5.95;;;1.33;;
5585;SDS011;2815;54.094;12.112;2022-07-29T13:29:06;4.13;;;1.48;;
5585;SDS011;2815;54.094;12.112;2022-07-29T13:31:35;5.72;;;1.30;;
5585;SDS011;2815;54.094;12.112;2022-07-29T13:34:03;3.40;;;1.20;;
5585;SDS011;2815;54.094;12.112;2022-07-29T13:36:32;6.90;;;1.60;;
5585;SDS011;2815;54.094;12.112;2022-07-29T13:39:06;5.80;;;1.42;;
5585;SDS011;2815;54.094;12.112;2022-07-29T13:41:34;6.15;;;1.40;;
5585;SDS011;2815;54.094;12.112;2022-07-29T13:44:02;4.90;;;1.40;;
5585;SDS011;2815;54.094;12.112;2022-07-29T13:46:30;9.48;;;2.35;;
5585;SDS011;2815;54.094;12.112;2022-07-29T13:49:00;6.90;;;1.60;;
5585;SDS011;2815;54.094;12.112;2022-07-29T13:51:28;4.78;;;1.38;;
5585;SDS011;2815;54.094;12.112;2022-07-29T13:53:56;3.67;;;1.40;;
5585;SDS011;2815;54.094;12.112;2022-07-29T13:56:25;3.55;;;1.08;;
5585;SDS011;2815;54.094;12.112;2022-07-29T13:58:53;6.13;;;1.38;;
5585;SDS011;2815;54.094;12.112;2022-07-29T14:01:21;5.45;;;1.40;;
5585;SDS011;2815;54.094;12.112;2022-07-29T14:03:49;6.85;;;1.50;;
5585;SDS011;2815;54.094;12.112;2022-07-29T14:06:18;4.45;;;1.33;;
5585;SDS011;2815;54.094;12.112;2022-07-29T14:08:47;6.32;;;1.30;;
5585;SDS011;2815;54.094;12.112;2022-07-29T14:11:15;3.17;;;1.00;;
5585;SDS011;2815;54.094;12.112;2022-07-29T14:13:43;4.95;;;1.45;;
5585;SDS011;2815;54.094;12.112;2022-07-29T14:16:11;6.45;;;1.20;;
5585;SDS011;2815;54.094;12.112;2022-07-29T14:18:40;3.22;;;1.20;;
5585;SDS011;2815;54.094;12.112;2022-07-29T14:21:07;4.88;;;1.50;;
5585;SDS011;2815;54.094;12.112;2022-07-29T14:23:37;3.22;;;1.30;;
5585;SDS011;2815;54.094;12.112;2022-07-29T14:26:07;6.13;;;1.48;;
5585;SDS011;2815;54.094;12.112;2022-07-29T14:28:46;4.40;;;1.30;;
5585;SDS011;2815;54.094;12.112;2022-07-29T14:31:14;5.45;;;1.20;;
5585;SDS011;2815;54.094;12.112;2022-07-29T14:33:43;3.67;;;1.60;;
5585;SDS011;2815;54.094;12.112;2022-07-29T14:36:15;4.30;;;1.20;;
5585;SDS011;2815;54.094;12.112;2022-07-29T14:38:44;3.88;;;1.40;;
5585;SDS011;2815;54.094;12.112;2022-07-29T14:41:12;4.25;;;1.15;;
5585;SDS011;2815;54.094;12.112;2022-07-29T14:43:41;4.43;;;1.50;;
5585;SDS011;2815;54.094;12.112;2022-07-29T14:46:09;7.28;;;1.30;;
5585;SDS011;2815;54.094;12.112;2022-07-29T14:48:37;4.35;;;1.20;;
5585;SDS011;2815;54.094;12.112;2022-07-29T14:51:05;5.03;;;1.30;;
5585;SDS011;2815;54.094;12.112;2022-07-29T14:53:33;7.65;;;1.30;;
5585;SDS011;2815;54.094;12.112;2022-07-29T14:56:03;6.43;;;1.27;;
5585;SDS011;2815;54.094;12.112;2022-07-29T14:58:51;2.53;;;1.20;;
5585;SDS011;2815;54.094;12.112;2022-07-29T15:01:19;2.80;;;1.17;;
5585;SDS011;2815;54.094;12.112;2022-07-29T15:03:47;5.10;;;1.35;;
5585;SDS011;2815;54.094;12.112;2022-07-29T15:06:15;8.98;;;1.60;;
5585;SDS011;2815;54.094;12.112;2022-07-29T15:08:43;7.60;;;1.42;;
5585;SDS011;2815;54.094;12.112;2022-07-29T15:11:12;6.35;;;1.40;;
5585;SDS011;2815;54.094;12.112;2022-07-29T15:13:40;6.88;;;1.58;;
5585;SDS011;2815;54.094;12.112;2022-07-29T15:16:08;6.35;;;1.30;;
5585;SDS011;2815;54.094;12.112;2022-07-29T15:18:36;5.57;;;1.27;;
5585;SDS011;2815;54.094;12.112;2022-07-29T15:21:04;4.65;;;1.30;;
5585;SDS011;2815;54.094;12.112;2022-07-29T15:23:33;4.53;;;1.10;;
5585;SDS011;2815;54.094;12.112;2022-07-29T15:26:02;4.18;;;1.20;;
5585;SDS011;2815;54.094;12.112;2022-07-29T15:28:32;7.20;;;1.50;;
5585;SDS011;2815;54.094;12.112;2022-07-29T15:31:00;7.80;;;1.45;;
5585;SDS011;2815;54.094;12.112;2022-07-29T15:33:29;2.63;;;1.10;;
5585;SDS011;2815;54.094;12.112;2022-07-29T15:35:57;5.18;;;1.15;;
5585;SDS011;2815;54.094;12.112;2022-07-29T15:38:26;5.65;;;1.25;;
5585;SDS011;2815;54.094;12.112;2022-07-29T15:40:55;4.10;;;1.42;;
5585;SDS011;2815;54.094;12.112;2022-07-29T15:43:23;3.60;;;1.23;;
5585;SDS011;2815;54.094;12.112;2022-07-29T15:45:53;4.57;;;1.40;;